createdAt,value
2023-03-10T00:01:30.027Z,7.40
2023-03-10T00:04:01.106Z,7.79
2023-03-10T00:06:32.416Z,7.39
2023-03-10T00:08:59.919Z,7.48
2023-03-10T00:11:27.113Z,6.96
2023-03-10T00:13:54.300Z,7.19
2023-03-10T00:16:29.812Z,7.16
2023-03-10T00:18:57.598Z,7.30
2023-03-10T00:21:28.713Z,7.57
2023-03-10T00:23:56.990Z,7.70
2023-03-10T00:26:27.572Z,6.99
2023-03-10T00:28:55.532Z,7.57
2023-03-10T00:31:25.665Z,7.60
2023-03-10T00:33:52.765Z,7.65
2023-03-10T00:36:42.408Z,7.70
2023-03-10T00:39:11.851Z,7.73
2023-03-10T00:41:50.245Z,7.56
2023-03-10T00:44:17.360Z,7.85
2023-03-10T00:46:44.395Z,7.78
2023-03-10T00:49:16.797Z,7.08
2023-03-10T00:51:44.130Z,6.75
2023-03-10T00:54:11.359Z,7.38
2023-03-10T00:56:38.837Z,7.39
2023-03-10T00:59:08.247Z,7.48
2023-03-10T01:01:39.927Z,7.17
2023-03-10T01:04:14.757Z,7.20
2023-03-10T01:06:44.526Z,7.40
2023-03-10T01:09:11.500Z,7.38
2023-03-10T01:11:39.501Z,7.32
2023-03-10T01:14:10.797Z,7.31
2023-03-10T01:16:38.908Z,7.21
2023-03-10T01:19:06.027Z,7.00
2023-03-10T01:21:36.231Z,7.04
2023-03-10T01:24:05.181Z,7.21
2023-03-10T01:26:33.857Z,7.18
2023-03-10T01:29:00.866Z,7.08
2023-03-10T01:31:27.965Z,7.18
2023-03-10T01:33:56.406Z,7.35
2023-03-10T01:36:29.111Z,7.18
2023-03-10T01:39:00.956Z,6.98
2023-03-10T01:41:28.074Z,7.09
2023-03-10T01:43:56.970Z,7.28
2023-03-10T01:46:44.923Z,7.29
2023-03-10T01:49:24.972Z,7.27
2023-03-10T01:51:58.843Z,7.21
2023-03-10T01:54:31.226Z,7.21
2023-03-10T01:56:59.085Z,7.29
2023-03-10T01:59:28.723Z,7.45
2023-03-10T02:01:59.236Z,7.01
2023-03-10T02:04:51.502Z,7.30
2023-03-10T02:07:22.831Z,6.77
2023-03-10T02:09:52.704Z,6.87
2023-03-10T02:12:19.633Z,6.37
2023-03-10T02:14:50.874Z,6.88
2023-03-10T02:17:22.032Z,7.01
2023-03-10T02:19:52.126Z,6.85
2023-03-10T02:22:19.304Z,7.03
2023-03-10T02:25:22.354Z,6.22
2023-03-10T02:27:50.655Z,7.15
2023-03-10T02:30:24.162Z,6.89
2023-03-10T02:32:59.766Z,6.92
2023-03-10T02:35:26.734Z,7.00
2023-03-10T02:37:54.021Z,7.17
2023-03-10T02:40:40.800Z,6.48
2023-03-10T02:43:28.081Z,6.83
2023-03-10T02:46:02.561Z,6.85
2023-03-10T02:48:38.767Z,6.93
2023-03-10T02:51:38.508Z,7.11
2023-03-10T02:54:11.274Z,6.91
2023-03-10T02:56:38.826Z,6.14
2023-03-10T02:59:07.803Z,5.46
2023-03-10T03:01:35.244Z,4.58
2023-03-10T03:04:05.166Z,5.77
2023-03-10T03:06:32.269Z,6.28
2023-03-10T03:08:59.380Z,6.08
2023-03-10T03:11:26.423Z,5.59
2023-03-10T03:13:53.415Z,6.06
2023-03-10T03:16:20.482Z,6.20
2023-03-10T03:18:47.723Z,6.13
2023-03-10T03:21:17.720Z,6.24
2023-03-10T03:23:46.721Z,6.36
2023-03-10T03:26:19.117Z,6.38
2023-03-10T03:28:46.665Z,6.36
2023-03-10T03:31:16.047Z,6.45
2023-03-10T03:33:43.615Z,6.55
2023-03-10T03:36:11.549Z,6.14
2023-03-10T03:38:39.010Z,6.28
2023-03-10T03:41:08.788Z,6.30
2023-03-10T03:43:35.584Z,5.35
2023-03-10T03:46:02.657Z,5.59
2023-03-10T03:48:29.690Z,5.81
2023-03-10T03:50:56.685Z,5.84
2023-03-10T03:53:23.629Z,5.49
2023-03-10T03:55:51.622Z,5.75
2023-03-10T03:58:18.879Z,5.97
2023-03-10T04:00:45.977Z,5.28
2023-03-10T04:03:13.110Z,5.74
2023-03-10T04:05:42.663Z,5.53
2023-03-10T04:08:09.704Z,5.73
2023-03-10T04:10:39.182Z,5.80
2023-03-10T04:13:06.112Z,6.05
2023-03-10T04:15:33.420Z,6.02
2023-03-10T04:18:00.520Z,5.86
2023-03-10T04:20:27.482Z,6.14
2023-03-10T04:22:57.434Z,6.12
2023-03-10T04:25:26.642Z,6.25
2023-03-10T04:27:53.713Z,6.13
2023-03-10T04:30:21.338Z,5.95
2023-03-10T04:32:49.389Z,5.62
2023-03-10T04:35:16.545Z,6.16
2023-03-10T04:37:45.466Z,5.60
2023-03-10T04:40:14.324Z,5.97
2023-03-10T04:42:41.493Z,6.12
2023-03-10T04:45:09.267Z,6.42
2023-03-10T04:47:36.476Z,6.11
2023-03-10T04:50:04.455Z,6.17
2023-03-10T04:52:31.746Z,6.32
2023-03-10T04:54:58.899Z,6.53
2023-03-10T04:57:25.866Z,7.07
2023-03-10T04:59:53.165Z,6.98
2023-03-10T05:02:20.485Z,7.77
2023-03-10T05:04:47.674Z,6.83
2023-03-10T05:07:14.816Z,6.97
2023-03-10T05:09:43.166Z,7.17
2023-03-10T05:12:10.940Z,6.90
2023-03-10T05:14:42.553Z,7.00
2023-03-10T05:17:09.968Z,7.16
2023-03-10T05:19:40.884Z,7.39
2023-03-10T05:22:11.398Z,6.96
2023-03-10T05:24:39.635Z,7.25
2023-03-10T05:27:09.271Z,7.44
2023-03-10T05:29:43.384Z,7.38
2023-03-10T05:32:10.493Z,7.50
2023-03-10T05:37:21.072Z,7.28
2023-03-10T05:39:54.249Z,7.39
2023-03-10T05:42:27.176Z,7.41
2023-03-10T05:44:56.612Z,7.53
2023-03-10T05:47:29.134Z,7.58
2023-03-10T05:49:57.756Z,8.22
2023-03-10T05:52:30.063Z,7.91
2023-03-10T05:55:13.926Z,8.16
2023-03-10T05:57:54.406Z,7.88
2023-03-10T06:00:42.516Z,8.07
2023-03-10T06:03:30.297Z,8.19
2023-03-10T06:14:53.184Z,8.92
2023-03-10T06:17:21.821Z,8.84
2023-03-10T06:19:49.082Z,8.36
2023-03-10T06:22:18.551Z,8.48
2023-03-10T06:25:03.928Z,8.72
2023-03-10T06:30:17.905Z,9.22
2023-03-10T06:32:52.578Z,9.29
2023-03-10T06:35:27.172Z,8.80
2023-03-10T06:37:57.108Z,8.89
2023-03-10T06:40:24.629Z,9.02
2023-03-10T06:42:52.235Z,9.53
2023-03-10T06:45:20.119Z,9.25
2023-03-10T06:47:52.186Z,9.09
2023-03-10T06:50:19.677Z,9.36
2023-03-10T06:52:52.943Z,9.87
2023-03-10T06:55:23.107Z,10.20
2023-03-10T06:57:50.585Z,10.40
2023-03-10T07:00:19.957Z,10.30
2023-03-10T07:02:47.031Z,10.43
2023-03-10T07:05:18.209Z,10.79
2023-03-10T07:07:46.960Z,11.20
2023-03-10T07:10:14.780Z,10.82
2023-03-10T07:12:42.485Z,11.44
2023-03-10T07:15:11.645Z,11.43
2023-03-10T07:17:39.572Z,11.61
2023-03-10T07:20:07.333Z,11.70
2023-03-10T07:22:34.334Z,11.75
2023-03-10T07:25:01.287Z,12.10
2023-03-10T07:27:30.112Z,11.93
2023-03-10T07:29:57.311Z,12.58
2023-03-10T07:32:25.370Z,13.02
2023-03-10T07:34:53.502Z,12.60
2023-03-10T07:37:20.751Z,12.87
2023-03-10T07:39:49.132Z,13.83
2023-03-10T07:42:18.217Z,13.83
2023-03-10T07:44:45.216Z,13.92
2023-03-10T07:47:12.400Z,15.10
2023-03-10T07:49:39.612Z,16.05
2023-03-10T07:52:06.782Z,16.80
2023-03-10T07:54:33.853Z,16.92
2023-03-10T07:57:00.938Z,17.60
2023-03-10T07:59:28.075Z,17.06
2023-03-10T08:01:55.134Z,17.48
2023-03-10T08:04:22.323Z,17.07
2023-03-10T08:06:50.033Z,17.54
2023-03-10T08:09:17.148Z,17.62
2023-03-10T08:11:44.206Z,17.75
2023-03-10T08:14:11.665Z,18.30
2023-03-10T08:16:39.261Z,19.56
2023-03-10T08:19:07.974Z,18.93
2023-03-10T08:21:37.659Z,19.61
2023-03-10T08:24:05.071Z,20.49
2023-03-10T08:26:34.586Z,21.28
2023-03-10T08:29:02.095Z,21.60
2023-03-10T08:31:29.299Z,21.21
2023-03-10T08:33:57.893Z,21.88
2023-03-10T08:36:30.963Z,22.51
2023-03-10T08:39:01.059Z,22.83
2023-03-10T08:41:37.495Z,23.11
2023-03-10T08:44:10.080Z,23.16
2023-03-10T08:46:37.661Z,23.40
2023-03-10T08:49:05.185Z,23.70
2023-03-10T08:51:33.113Z,22.61
2023-03-10T08:54:01.584Z,23.02
2023-03-10T08:56:32.193Z,23.24
2023-03-10T08:59:01.028Z,23.49
2023-03-10T09:01:34.498Z,22.99
2023-03-10T09:04:03.424Z,22.90
2023-03-10T09:06:31.609Z,23.02
2023-03-10T09:09:01.861Z,23.10
2023-03-10T09:11:32.774Z,23.23
2023-03-10T09:14:04.345Z,23.67
2023-03-10T09:16:32.039Z,23.51
2023-03-10T09:19:00.391Z,24.06
2023-03-10T09:21:32.749Z,24.08
2023-03-10T09:24:01.501Z,23.69
2023-03-10T09:26:30.668Z,23.49
2023-03-10T09:28:57.905Z,23.33
2023-03-10T09:31:31.352Z,23.34
2023-03-10T09:33:58.444Z,23.06
2023-03-10T09:36:26.379Z,23.05
2023-03-10T09:38:53.518Z,23.17
2023-03-10T09:41:44.403Z,23.07
2023-03-10T09:44:24.228Z,22.89
2023-03-10T09:47:19.913Z,22.95
2023-03-10T09:50:18.709Z,22.61
2023-03-10T09:52:57.046Z,22.76
2023-03-10T09:55:38.282Z,22.08
2023-03-10T09:58:14.480Z,22.48
2023-03-10T10:00:45.433Z,22.60
2023-03-10T10:03:28.133Z,22.38
2023-03-10T10:05:57.075Z,22.73
2023-03-10T10:08:44.981Z,23.15
2023-03-10T10:11:19.930Z,23.60
2023-03-10T10:13:47.162Z,22.75
2023-03-10T10:16:31.978Z,23.28
2023-03-10T10:19:29.884Z,22.57
2023-03-10T10:22:13.985Z,23.44
2023-03-10T10:24:41.159Z,23.67
2023-03-10T10:27:08.260Z,24.42
2023-03-10T10:29:37.992Z,24.54
2023-03-10T10:32:11.955Z,25.06
2023-03-10T10:34:44.173Z,24.80
2023-03-10T10:37:23.576Z,25.19
2023-03-10T10:39:55.273Z,25.26
2023-03-10T10:42:34.730Z,25.60
2023-03-10T10:45:05.576Z,25.30
2023-03-10T10:47:52.389Z,25.74
2023-03-10T10:50:19.553Z,25.65
2023-03-10T10:52:53.375Z,25.81
2023-03-10T10:55:38.168Z,26.31
2023-03-10T10:58:23.776Z,26.11
2023-03-10T11:01:20.197Z,26.09
2023-03-10T11:03:49.256Z,26.33
2023-03-10T11:06:27.677Z,26.23
2023-03-10T11:09:10.944Z,26.46
2023-03-10T11:12:03.527Z,26.34
2023-03-10T11:14:57.559Z,25.91
2023-03-10T11:17:33.707Z,26.20
2023-03-10T11:20:27.972Z,26.58
2023-03-10T11:23:18.765Z,25.60
2023-03-10T11:26:19.293Z,25.37
2023-03-10T11:29:14.684Z,25.98
2023-03-10T11:31:58.765Z,26.21
2023-03-10T11:34:31.720Z,26.33
2023-03-10T11:37:32.435Z,26.54
2023-03-10T11:40:25.364Z,26.37
2023-03-10T11:43:25.798Z,26.88
2023-03-10T11:45:55.049Z,27.11
2023-03-10T11:48:49.593Z,27.32
2023-03-10T11:51:51.998Z,27.11
2023-03-10T11:54:35.738Z,27.27
2023-03-10T11:57:24.127Z,26.94
2023-03-10T11:59:58.127Z,26.57
2023-03-10T12:02:33.328Z,26.52
2023-03-10T12:05:27.424Z,26.67
2023-03-10T12:08:03.105Z,26.31
2023-03-10T12:10:32.656Z,26.65
2023-03-10T12:13:13.604Z,26.61
2023-03-10T12:15:45.351Z,26.93
2023-03-10T12:18:16.118Z,27.19
2023-03-10T12:23:44.048Z,27.58
2023-03-10T12:26:16.371Z,27.83
2023-03-10T12:28:44.546Z,27.77
2023-03-10T12:31:37.110Z,27.80
2023-03-10T12:34:19.247Z,27.74
2023-03-10T12:36:49.761Z,27.18
2023-03-10T12:39:29.614Z,27.30
2023-03-10T12:41:59.905Z,26.75
2023-03-10T12:45:19.036Z,27.09
2023-03-10T12:47:59.656Z,26.47
2023-03-10T12:51:05.652Z,26.48
2023-03-10T12:53:48.603Z,26.70
2023-03-10T12:56:26.569Z,26.67
2023-03-10T12:59:03.285Z,26.63
2023-03-10T13:01:40.590Z,26.58
2023-03-10T13:04:18.984Z,26.57
2023-03-10T13:06:47.806Z,26.01
2023-03-10T13:09:36.701Z,25.86
2023-03-10T13:12:26.752Z,25.89
2023-03-10T13:15:14.969Z,26.26
2023-03-10T13:17:45.196Z,25.92
2023-03-10T13:20:21.788Z,26.00
2023-03-10T13:23:02.919Z,25.97
2023-03-10T13:25:31.258Z,26.04
2023-03-10T13:27:58.489Z,26.14
2023-03-10T13:30:28.110Z,25.89
2023-03-10T13:33:05.009Z,26.21
2023-03-10T13:35:53.067Z,26.48
2023-03-10T13:38:32.073Z,26.50
2023-03-10T13:41:06.601Z,26.35
2023-03-10T13:43:57.378Z,26.05
2023-03-10T13:46:33.657Z,26.27
2023-03-10T13:52:16.685Z,25.30
2023-03-10T13:54:49.471Z,25.69
2023-03-10T13:57:31.608Z,25.92
2023-03-10T14:00:07.758Z,25.67
2023-03-10T14:02:47.784Z,25.78
2023-03-10T14:08:29.627Z,25.57
2023-03-10T14:11:30.668Z,24.99
2023-03-10T14:14:01.114Z,25.12
2023-03-10T14:16:50.634Z,24.95
2023-03-10T14:19:39.762Z,24.22
2023-03-10T14:22:44.642Z,24.44
2023-03-10T14:25:22.102Z,24.62
2023-03-10T14:30:44.179Z,24.58
2023-03-10T14:33:17.992Z,24.33
2023-03-10T14:35:47.681Z,24.40
2023-03-10T14:38:14.671Z,24.18
2023-03-10T14:40:51.955Z,24.36
2023-03-10T14:43:25.492Z,24.48
2023-03-10T14:46:00.477Z,23.87
2023-03-10T14:48:34.027Z,23.94
2023-03-10T14:51:06.443Z,23.62
2023-03-10T14:53:38.036Z,23.25
2023-03-10T14:56:10.442Z,22.79
2023-03-10T14:58:53.403Z,23.16
2023-03-10T15:01:22.518Z,22.77
2023-03-10T15:03:51.763Z,23.06
2023-03-10T15:06:43.129Z,22.97
2023-03-10T15:09:14.175Z,23.16
2023-03-10T15:11:41.923Z,22.58
2023-03-10T15:14:26.755Z,22.59
2023-03-10T15:16:55.623Z,22.40
2023-03-10T15:19:27.481Z,22.80
2023-03-10T15:22:03.163Z,22.64
2023-03-10T15:24:32.747Z,22.95
2023-03-10T15:26:59.917Z,22.46
2023-03-10T15:29:29.182Z,22.56
2023-03-10T15:31:56.855Z,22.51
2023-03-10T15:34:29.556Z,22.28
2023-03-10T15:36:57.402Z,22.57
2023-03-10T15:39:31.947Z,22.11
2023-03-10T15:42:10.057Z,21.91
2023-03-10T15:44:51.220Z,21.85
2023-03-10T15:47:22.647Z,21.90
2023-03-10T15:50:03.600Z,21.88
2023-03-10T15:52:39.180Z,21.99
2023-03-10T15:55:21.416Z,21.92
2023-03-10T15:57:53.893Z,21.74
2023-03-10T16:00:44.109Z,21.87
2023-03-10T16:03:18.567Z,21.69
2023-03-10T16:05:50.656Z,21.86
2023-03-10T16:08:44.175Z,21.75
2023-03-10T16:11:26.829Z,21.61
2023-03-10T16:13:55.775Z,21.47
2023-03-10T16:19:17.522Z,21.20
2023-03-10T16:21:54.644Z,21.12
2023-03-10T16:24:30.252Z,21.09
2023-03-10T16:27:03.294Z,21.25
2023-03-10T16:29:31.224Z,21.23
2023-03-10T16:31:59.122Z,21.15
2023-03-10T16:34:28.698Z,21.07
2023-03-10T16:36:58.281Z,20.66
2023-03-10T16:39:28.704Z,20.95
2023-03-10T16:41:58.511Z,20.80
2023-03-10T16:44:27.669Z,20.75
2023-03-10T16:46:57.509Z,20.70
2023-03-10T16:49:33.360Z,20.57
2023-03-10T16:52:00.643Z,20.57
2023-03-10T16:54:31.829Z,20.43
2023-03-10T16:57:01.655Z,20.40
2023-03-10T16:59:28.480Z,20.46
2023-03-10T17:01:57.473Z,20.56
2023-03-10T17:04:24.854Z,17.86
2023-03-10T17:06:51.987Z,16.22
2023-03-10T17:09:19.000Z,14.51
2023-03-10T17:11:52.475Z,14.46
2023-03-10T17:14:21.579Z,14.65
2023-03-10T17:16:48.851Z,14.56
2023-03-10T17:19:18.491Z,14.16
2023-03-10T17:21:48.656Z,13.40
2023-03-10T17:24:19.385Z,13.32
2023-03-10T17:26:47.133Z,13.33
2023-03-10T17:29:14.625Z,13.83
2023-03-10T17:31:41.759Z,13.56
2023-03-10T17:34:12.842Z,13.35
2023-03-10T17:36:40.223Z,13.69
2023-03-10T17:39:08.498Z,13.90
2023-03-10T17:41:37.038Z,13.55
2023-03-10T17:44:06.623Z,13.67
2023-03-10T17:46:33.839Z,13.17
2023-03-10T17:49:00.711Z,13.19
2023-03-10T17:51:30.842Z,13.75
2023-03-10T17:54:01.134Z,13.24
2023-03-10T17:56:29.415Z,13.28
2023-03-10T17:58:57.506Z,14.00
2023-03-10T18:01:29.425Z,14.02
2023-03-10T18:03:59.359Z,13.90
2023-03-10T18:06:30.836Z,14.76
2023-03-10T18:08:59.525Z,15.01
2023-03-10T18:11:27.972Z,15.15
2023-03-10T18:14:03.401Z,15.27
2023-03-10T18:16:35.703Z,15.63
2023-03-10T18:19:07.755Z,15.99
2023-03-10T18:21:36.357Z,14.45
2023-03-10T18:24:04.128Z,13.88
2023-03-10T18:26:31.301Z,13.64
2023-03-10T18:29:00.565Z,13.69
2023-03-10T18:31:32.238Z,12.41
2023-03-10T18:34:00.592Z,12.32
2023-03-10T18:36:29.738Z,12.50
2023-03-10T18:38:57.685Z,13.42
2023-03-10T18:41:27.481Z,13.51
2023-03-10T18:43:54.435Z,12.78
2023-03-10T18:46:23.715Z,13.63
2023-03-10T18:48:56.134Z,13.83
2023-03-10T18:51:28.172Z,14.16
2023-03-10T18:53:58.227Z,14.39
2023-03-10T18:56:29.266Z,13.63
2023-03-10T18:58:56.958Z,14.34
2023-03-10T19:01:24.073Z,14.54
2023-03-10T19:03:51.250Z,14.64
2023-03-10T19:06:18.532Z,14.84
2023-03-10T19:08:45.416Z,14.86
2023-03-10T19:11:12.543Z,14.71
2023-03-10T19:13:40.778Z,14.93
2023-03-10T19:16:10.382Z,15.05
2023-03-10T19:18:37.574Z,15.15
2023-03-10T19:21:09.113Z,15.26
2023-03-10T19:23:36.385Z,15.27
2023-03-10T19:26:10.048Z,15.16
2023-03-10T19:28:40.084Z,15.08
2023-03-10T19:31:14.096Z,15.22
2023-03-10T19:33:43.503Z,15.28
2023-03-10T19:36:13.265Z,15.04
2023-03-10T19:38:41.459Z,15.12
2023-03-10T19:41:18.917Z,15.30
2023-03-10T19:43:49.293Z,15.33
2023-03-10T19:46:17.510Z,14.05
2023-03-10T19:48:44.847Z,14.22
2023-03-10T19:51:35.322Z,14.92
2023-03-10T19:54:07.638Z,14.95
2023-03-10T19:56:35.594Z,15.00
2023-03-10T19:59:02.759Z,14.98
2023-03-10T20:01:30.965Z,14.65
2023-03-10T20:04:07.845Z,14.58
2023-03-10T20:06:35.876Z,14.71
2023-03-10T20:09:09.583Z,14.77
2023-03-10T20:11:46.395Z,14.87
2023-03-10T20:14:19.395Z,13.67
2023-03-10T20:16:49.472Z,14.09
2023-03-10T20:19:17.034Z,13.06
2023-03-10T20:21:49.474Z,14.16
2023-03-10T20:24:18.200Z,13.93
2023-03-10T20:26:45.305Z,12.44
2023-03-10T20:29:12.415Z,11.74
2023-03-10T20:31:39.934Z,12.00
2023-03-10T20:34:07.637Z,11.76
2023-03-10T20:36:34.802Z,11.53
2023-03-10T20:39:02.745Z,11.88
2023-03-10T20:41:38.323Z,11.83
2023-03-10T20:44:22.642Z,11.80
2023-03-10T20:47:09.722Z,11.62
2023-03-10T20:49:37.866Z,11.78
2023-03-10T20:52:10.307Z,11.74
2023-03-10T20:54:38.599Z,11.86
2023-03-10T20:57:10.270Z,12.03
2023-03-10T20:59:39.671Z,11.97
2023-03-10T21:02:07.002Z,12.21
2023-03-10T21:04:34.998Z,12.76
2023-03-10T21:07:02.448Z,12.95
2023-03-10T21:09:41.044Z,12.99
2023-03-10T21:12:09.132Z,12.82
2023-03-10T21:14:41.493Z,13.15
2023-03-10T21:17:17.960Z,13.30
2023-03-10T21:19:46.274Z,13.29
2023-03-10T21:22:20.584Z,13.45
2023-03-10T21:24:54.265Z,13.49
2023-03-10T21:27:21.104Z,12.99
2023-03-10T21:29:50.756Z,12.76
2023-03-10T21:32:18.780Z,13.19
2023-03-10T21:34:46.570Z,13.27
2023-03-10T21:37:16.388Z,13.33
2023-03-10T21:39:43.098Z,13.27
2023-03-10T21:42:13.249Z,12.83
2023-03-10T21:44:40.337Z,12.16
2023-03-10T21:47:07.321Z,12.71
2023-03-10T21:49:34.640Z,12.44
2023-03-10T21:52:02.304Z,11.98
2023-03-10T21:54:32.390Z,11.35
2023-03-10T21:57:00.298Z,10.81
2023-03-10T21:59:27.557Z,11.95
2023-03-10T22:01:55.545Z,11.90
2023-03-10T22:04:23.074Z,11.97
2023-03-10T22:06:53.074Z,12.15
2023-03-10T22:09:20.148Z,11.99
2023-03-10T22:11:47.517Z,11.78
2023-03-10T22:14:14.508Z,12.12
2023-03-10T22:16:42.392Z,11.55
2023-03-10T22:19:09.565Z,11.69
2023-03-10T22:21:36.958Z,11.85
2023-03-10T22:24:06.722Z,11.78
2023-03-10T22:26:40.562Z,11.09
2023-03-10T22:29:08.140Z,11.90
2023-03-10T22:31:41.296Z,11.94
2023-03-10T22:34:08.474Z,11.97
2023-03-10T22:36:55.333Z,11.76
2023-03-10T22:39:24.125Z,12.07
2023-03-10T22:42:00.572Z,11.93
2023-03-10T22:44:27.543Z,11.71
2023-03-10T22:46:54.703Z,12.02
2023-03-10T22:49:21.674Z,11.92
2023-03-10T22:51:48.631Z,11.85
2023-03-10T22:54:16.334Z,11.95
2023-03-10T22:56:52.730Z,11.96
2023-03-10T22:59:24.544Z,11.88
2023-03-10T23:01:51.881Z,12.04
2023-03-10T23:04:19.981Z,10.12
2023-03-10T23:06:46.893Z,10.51
2023-03-10T23:09:13.854Z,10.56
2023-03-10T23:11:40.896Z,10.52
2023-03-10T23:14:07.997Z,10.94
2023-03-10T23:16:36.728Z,11.33
2023-03-10T23:19:08.670Z,11.25
2023-03-10T23:21:36.316Z,11.25
2023-03-10T23:24:03.384Z,11.41
2023-03-10T23:26:37.636Z,10.86
2023-03-10T23:29:05.037Z,11.11
2023-03-10T23:31:31.977Z,11.04
2023-03-10T23:33:59.024Z,11.37
2023-03-10T23:36:25.936Z,11.51
2023-03-10T23:38:52.820Z,11.11
2023-03-10T23:41:19.803Z,10.69
2023-03-10T23:43:46.784Z,11.49
2023-03-10T23:46:13.840Z,11.55
2023-03-10T23:48:40.852Z,11.39
2023-03-10T23:51:15.262Z,11.41
2023-03-10T23:53:44.712Z,11.51
2023-03-10T23:56:12.475Z,11.56
2023-03-10T23:58:40.379Z,11.41
